createdAt,value
2019-01-06T00:02:35.983Z,94.74
2019-01-06T00:05:24.566Z,94.44
2019-01-06T00:08:11.888Z,94.57
2019-01-06T00:10:51.108Z,94.57
2019-01-06T00:13:23.476Z,94.80
2019-01-06T00:16:13.649Z,94.59
2019-01-06T00:18:58.729Z,94.06
2019-01-06T00:21:31.240Z,93.96
2019-01-06T00:24:11.576Z,94.39
2019-01-06T00:26:57.483Z,94.32
2019-01-06T00:29:43.861Z,94.37
2019-01-06T00:32:16.404Z,94.70
2019-01-06T00:35:01.298Z,94.21
2019-01-06T00:37:47.166Z,93.81
2019-01-06T00:40:19.624Z,94.49
2019-01-06T00:42:52.176Z,94.50
2019-01-06T00:45:38.564Z,94.40
2019-01-06T00:48:20.213Z,94.14
2019-01-06T00:51:08.573Z,94.19
2019-01-06T00:53:41.185Z,94.12
2019-01-06T00:56:22.548Z,94.05
2019-01-06T00:58:55.016Z,94.16
2019-01-06T01:01:46.510Z,94.10
2019-01-06T01:04:34.660Z,93.65
2019-01-06T01:07:24.875Z,93.99
2019-01-06T01:09:57.548Z,94.44
2019-01-06T01:12:49.883Z,94.24
2019-01-06T01:15:22.428Z,94.58
2019-01-06T01:18:09.849Z,94.66
2019-01-06T01:20:46.249Z,94.44
2019-01-06T01:23:27.820Z,93.87
2019-01-06T01:26:11.380Z,93.93
2019-01-06T01:28:58.620Z,93.84
2019-01-06T01:31:42.432Z,93.72
2019-01-06T01:34:14.945Z,93.78
2019-01-06T01:36:47.507Z,93.40
2019-01-06T01:39:28.333Z,93.44
2019-01-06T01:42:00.832Z,93.22
2019-01-06T01:44:49.120Z,93.46
2019-01-06T01:47:41.532Z,93.76
2019-01-06T01:50:30.896Z,93.20
2019-01-06T01:53:03.444Z,93.32
2019-01-06T01:55:36.008Z,93.02
2019-01-06T01:58:13.414Z,93.30
2019-01-06T02:00:55.948Z,93.43
2019-01-06T02:03:42.076Z,93.50
2019-01-06T02:06:29.312Z,93.50
2019-01-06T02:09:10.316Z,93.21
2019-01-06T02:11:48.008Z,93.65
2019-01-06T02:14:34.372Z,93.36
2019-01-06T02:17:24.674Z,93.22
2019-01-06T02:20:09.100Z,93.05
2019-01-06T02:22:55.481Z,93.09
2019-01-06T02:25:33.744Z,93.14
2019-01-06T02:28:06.349Z,92.94
2019-01-06T02:30:54.700Z,92.55
2019-01-06T02:33:27.276Z,92.46
2019-01-06T02:36:06.124Z,92.82
2019-01-06T02:38:51.873Z,92.90
2019-01-06T02:41:36.880Z,92.96
2019-01-06T02:44:21.604Z,92.59
2019-01-06T02:46:54.256Z,92.55
2019-01-06T02:49:40.609Z,92.31
2019-01-06T02:52:24.852Z,92.12
2019-01-06T02:54:57.356Z,92.28
2019-01-06T02:57:47.771Z,91.87
2019-01-06T03:00:20.345Z,92.60
2019-01-06T03:03:10.728Z,91.93
2019-01-06T03:05:58.053Z,92.21
2019-01-06T03:08:35.818Z,92.65
2019-01-06T03:11:08.373Z,92.13
2019-01-06T03:13:48.445Z,92.06
2019-01-06T03:16:31.548Z,92.31
2019-01-06T03:19:21.857Z,92.43
2019-01-06T03:22:09.166Z,92.24
2019-01-06T03:24:41.717Z,92.31
2019-01-06T03:27:14.344Z,92.12
2019-01-06T03:29:46.928Z,91.59
2019-01-06T03:32:33.291Z,91.34
2019-01-06T03:35:05.841Z,91.25
2019-01-06T03:37:38.453Z,91.34
2019-01-06T03:40:11.088Z,91.21
2019-01-06T03:42:57.460Z,91.02
2019-01-06T03:45:39.440Z,90.87
2019-01-06T03:48:25.736Z,91.05
2019-01-06T03:51:16.022Z,90.91
2019-01-06T03:54:08.328Z,90.80
2019-01-06T03:56:40.875Z,91.01
2019-01-06T03:59:27.248Z,91.15
2019-01-06T04:02:18.634Z,91.06
2019-01-06T04:04:51.183Z,90.98
2019-01-06T04:07:23.823Z,90.69
2019-01-06T04:10:08.070Z,90.80
2019-01-06T04:12:58.493Z,90.90
2019-01-06T04:15:42.845Z,89.75
2019-01-06T04:18:15.312Z,89.75
2019-01-06T04:20:48.101Z,89.71
2019-01-06T04:23:35.428Z,90.33
2019-01-06T04:26:08.056Z,90.43
2019-01-06T04:28:59.409Z,90.16
2019-01-06T04:31:43.163Z,90.08
2019-01-06T04:34:22.261Z,90.72
2019-01-06T04:37:11.581Z,90.89
2019-01-06T04:39:53.223Z,91.31
2019-01-06T04:42:40.166Z,91.48
2019-01-06T04:45:28.509Z,91.79
2019-01-06T04:48:08.348Z,92.15
2019-01-06T04:50:40.891Z,91.18
2019-01-06T04:53:24.625Z,92.35
2019-01-06T04:56:10.992Z,92.55
2019-01-06T04:58:55.786Z,92.34
2019-01-06T05:01:28.283Z,92.15
2019-01-06T05:04:05.052Z,92.22
2019-01-06T05:06:37.585Z,91.99
2019-01-06T05:09:11.732Z,92.68
2019-01-06T05:11:47.161Z,92.06
2019-01-06T05:14:19.754Z,92.10
2019-01-06T05:17:07.027Z,91.93
2019-01-06T05:19:53.129Z,92.28
2019-01-06T05:22:31.081Z,91.73
2019-01-06T05:25:17.048Z,92.01
2019-01-06T05:27:55.996Z,91.50
2019-01-06T05:30:39.612Z,91.72
2019-01-06T05:33:12.164Z,91.73
2019-01-06T05:36:00.805Z,91.47
2019-01-06T05:38:46.136Z,91.46
2019-01-06T05:41:24.222Z,91.39
2019-01-06T05:44:03.584Z,91.29
2019-01-06T05:46:51.581Z,91.50
2019-01-06T05:49:24.181Z,91.37
2019-01-06T05:51:56.756Z,91.10
2019-01-06T05:54:45.157Z,90.60
2019-01-06T05:57:31.513Z,91.04
2019-01-06T06:00:04.004Z,91.12
2019-01-06T06:02:36.566Z,91.23
2019-01-06T06:05:17.728Z,91.08
2019-01-06T06:08:04.101Z,90.93
2019-01-06T06:10:51.280Z,91.01
2019-01-06T06:13:40.620Z,90.64
2019-01-06T06:16:13.166Z,90.89
2019-01-06T06:18:52.765Z,91.12
2019-01-06T06:21:40.944Z,91.77
2019-01-06T06:24:13.544Z,90.84
2019-01-06T06:26:59.912Z,91.95
2019-01-06T06:29:40.045Z,91.27
2019-01-06T06:32:12.464Z,90.97
2019-01-06T06:34:59.611Z,91.20
2019-01-06T06:37:39.143Z,91.93
2019-01-06T06:40:11.679Z,92.41
2019-01-06T06:42:59.918Z,92.50
2019-01-06T06:45:50.309Z,92.52
2019-01-06T06:48:32.781Z,92.85
2019-01-06T06:51:19.988Z,93.23
2019-01-06T06:54:02.323Z,92.79
2019-01-06T06:56:35.028Z,92.81
2019-01-06T06:59:15.688Z,93.26
2019-01-06T07:02:15.859Z,92.92
2019-01-06T07:05:03.192Z,92.25
2019-01-06T07:07:35.642Z,92.71
2019-01-06T07:10:17.626Z,92.07
2019-01-06T07:13:05.885Z,91.70
2019-01-06T07:15:38.712Z,91.41
2019-01-06T07:18:33.719Z,91.61
2019-01-06T07:21:23.110Z,91.91
2019-01-06T07:24:10.393Z,91.17
2019-01-06T07:26:58.735Z,90.82
2019-01-06T07:29:31.248Z,91.08
2019-01-06T07:32:03.872Z,91.38
2019-01-06T07:34:36.368Z,91.77
2019-01-06T07:37:28.552Z,92.50
2019-01-06T07:40:16.895Z,92.88
2019-01-06T07:43:04.324Z,93.85
2019-01-06T07:45:37.336Z,93.72
2019-01-06T07:48:22.940Z,93.58
2019-01-06T07:51:11.324Z,92.17
2019-01-06T07:53:55.936Z,93.62
2019-01-06T07:56:36.929Z,93.29
2019-01-06T07:59:16.405Z,93.77
2019-01-06T08:01:59.744Z,94.40
2019-01-06T08:04:46.308Z,94.13
2019-01-06T08:07:18.753Z,93.78
2019-01-06T08:10:05.149Z,93.12
2019-01-06T08:12:42.644Z,93.59
2019-01-06T08:15:15.284Z,92.88
2019-01-06T08:17:47.634Z,93.00
2019-01-06T08:20:20.405Z,93.38
2019-01-06T08:23:04.533Z,93.45
2019-01-06T08:25:51.688Z,93.94
2019-01-06T08:28:30.870Z,94.56
2019-01-06T08:31:03.464Z,93.82
2019-01-06T08:33:53.784Z,93.79
2019-01-06T08:36:26.355Z,93.37
2019-01-06T08:39:15.740Z,93.34
2019-01-06T08:42:02.977Z,93.33
2019-01-06T08:44:35.600Z,93.41
2019-01-06T08:47:21.984Z,93.18
2019-01-06T08:50:01.644Z,93.23
2019-01-06T08:52:32.052Z,93.15
2019-01-06T08:55:23.357Z,92.85
2019-01-06T08:58:12.765Z,93.09
2019-01-06T09:00:59.986Z,91.99
2019-01-06T09:03:51.173Z,92.70
2019-01-06T09:06:23.616Z,92.53
2019-01-06T09:09:00.325Z,91.87
2019-01-06T09:11:48.561Z,92.20
2019-01-06T09:14:21.144Z,92.00
2019-01-06T09:17:07.519Z,91.80
2019-01-06T09:19:40.049Z,92.04
2019-01-06T09:22:24.121Z,91.30
2019-01-06T09:25:12.345Z,92.24
2019-01-06T09:27:51.884Z,92.46
2019-01-06T09:30:24.321Z,92.67
2019-01-06T09:33:02.932Z,92.59
2019-01-06T09:35:35.316Z,92.08
2019-01-06T09:38:07.901Z,92.49
2019-01-06T09:40:57.140Z,91.46
2019-01-06T09:43:29.680Z,90.94
2019-01-06T09:46:02.280Z,91.88
2019-01-06T09:48:54.756Z,92.00
2019-01-06T09:51:44.020Z,92.81
2019-01-06T09:54:28.503Z,92.93
2019-01-06T09:57:00.941Z,93.53
2019-01-06T09:59:33.581Z,92.65
2019-01-06T10:02:19.929Z,93.08
2019-01-06T10:04:52.484Z,93.44
2019-01-06T10:07:22.832Z,93.52
2019-01-06T10:10:05.779Z,94.02
2019-01-06T10:12:44.913Z,94.14
2019-01-06T10:15:17.470Z,94.95
2019-01-06T10:18:03.853Z,95.06
2019-01-06T10:20:36.312Z,94.44
2019-01-06T10:23:08.821Z,95.28
2019-01-06T10:26:01.164Z,94.06
2019-01-06T10:28:33.771Z,93.91
2019-01-06T10:31:21.093Z,94.05
2019-01-06T10:34:05.980Z,93.88
2019-01-06T10:36:54.264Z,93.91
2019-01-06T10:39:44.553Z,93.48
2019-01-06T10:42:25.035Z,92.60
2019-01-06T10:45:01.501Z,92.39
2019-01-06T10:47:49.751Z,92.93
2019-01-06T10:50:34.412Z,92.34
2019-01-06T10:53:20.808Z,92.37
2019-01-06T10:56:03.935Z,91.72
2019-01-06T10:58:42.684Z,92.29
2019-01-06T11:01:15.220Z,91.68
2019-01-06T11:04:02.570Z,91.39
2019-01-06T11:06:51.950Z,90.93
2019-01-06T11:09:40.173Z,91.05
2019-01-06T11:12:29.420Z,90.95
2019-01-06T11:15:07.897Z,89.43
2019-01-06T11:17:40.388Z,88.64
2019-01-06T11:20:27.335Z,87.74
2019-01-06T11:23:12.444Z,88.21
2019-01-06T11:25:45.051Z,88.49
2019-01-06T11:28:34.379Z,87.37
2019-01-06T11:31:06.833Z,86.91
2019-01-06T11:33:39.381Z,87.06
2019-01-06T11:36:24.248Z,86.58
2019-01-06T11:38:57.060Z,86.53
2019-01-06T11:41:34.732Z,86.60
2019-01-06T11:44:22.996Z,85.79
2019-01-06T11:47:09.349Z,87.12
2019-01-06T11:49:57.741Z,87.35
2019-01-06T11:52:30.140Z,87.43
2019-01-06T11:55:14.344Z,88.52
2019-01-06T11:57:47.020Z,88.17
2019-01-06T12:00:28.221Z,89.55
2019-01-06T12:03:00.676Z,89.93
2019-01-06T12:05:33.244Z,89.67
2019-01-06T12:08:17.165Z,89.40
2019-01-06T12:11:08.684Z,88.55
2019-01-06T12:13:50.538Z,86.69
2019-01-06T12:16:30.865Z,88.38
2019-01-06T12:19:21.184Z,89.27
2019-01-06T12:22:07.537Z,88.65
2019-01-06T12:24:50.089Z,89.42
2019-01-06T12:27:30.753Z,89.56
2019-01-06T12:30:16.801Z,91.77
2019-01-06T12:32:57.336Z,91.87
2019-01-06T12:35:29.942Z,91.61
2019-01-06T12:38:16.301Z,90.24
2019-01-06T12:40:48.961Z,90.11
2019-01-06T12:43:21.536Z,89.75
2019-01-06T12:46:07.936Z,90.73
2019-01-06T12:48:51.768Z,91.46
2019-01-06T12:51:43.496Z,90.82
2019-01-06T12:54:22.763Z,90.82
2019-01-06T12:57:10.983Z,90.17
2019-01-06T12:59:59.360Z,91.05
2019-01-06T13:02:40.913Z,91.47
2019-01-06T13:05:27.291Z,91.17
2019-01-06T13:08:09.300Z,91.55
2019-01-06T13:10:57.652Z,90.93
2019-01-06T13:13:36.789Z,93.88
2019-01-06T13:16:10.824Z,95.26
2019-01-06T13:18:43.300Z,95.14
2019-01-06T13:21:15.928Z,96.64
2019-01-06T13:23:48.453Z,96.85
2019-01-06T13:26:34.771Z,97.45
2019-01-06T13:29:15.904Z,98.08
2019-01-06T13:31:54.325Z,98.60
2019-01-06T13:34:26.814Z,98.94
2019-01-06T13:37:13.213Z,100.00
2019-01-06T13:39:45.773Z,100.00
2019-01-06T13:42:18.329Z,100.00
2019-01-06T13:45:04.712Z,100.00
2019-01-06T13:47:54.487Z,100.00
2019-01-06T13:50:45.887Z,99.78
2019-01-06T13:53:18.494Z,100.00
2019-01-06T13:56:03.364Z,100.00
2019-01-06T13:58:33.717Z,100.00
2019-01-06T14:01:06.260Z,100.00
2019-01-06T14:03:47.264Z,100.00
2019-01-06T14:06:36.537Z,100.00
2019-01-06T14:09:20.991Z,100.00
2019-01-06T14:12:08.264Z,100.00
2019-01-06T14:14:48.800Z,100.00
2019-01-06T14:17:37.119Z,100.00
2019-01-06T14:20:20.028Z,100.00
2019-01-06T14:23:09.224Z,100.00
2019-01-06T14:25:41.712Z,100.00
2019-01-06T14:28:14.260Z,100.00
2019-01-06T14:31:04.600Z,100.00
2019-01-06T14:33:52.016Z,100.00
2019-01-06T14:36:38.479Z,99.11
2019-01-06T14:39:21.886Z,99.11
2019-01-06T14:42:02.384Z,99.29
2019-01-06T14:44:50.004Z,98.55
2019-01-06T14:47:36.408Z,98.67
2019-01-06T14:50:18.872Z,98.17
2019-01-06T14:52:51.404Z,98.69
2019-01-06T14:55:36.432Z,98.65
2019-01-06T14:58:14.976Z,98.58
2019-01-06T15:00:47.636Z,98.58
2019-01-06T15:03:20.216Z,98.23
2019-01-06T15:05:52.784Z,98.00
2019-01-06T15:08:25.296Z,98.20
2019-01-06T15:11:10.201Z,97.77
2019-01-06T15:13:42.584Z,97.71
2019-01-06T15:16:15.168Z,98.08
2019-01-06T15:18:47.725Z,98.33
2019-01-06T15:21:28.958Z,97.98
2019-01-06T15:24:16.121Z,96.69
2019-01-06T15:26:55.505Z,94.61
2019-01-06T15:29:38.918Z,94.32
2019-01-06T15:32:29.128Z,94.95
2019-01-06T15:35:01.822Z,94.51
2019-01-06T15:37:38.905Z,95.30
2019-01-06T15:40:11.745Z,95.33
2019-01-06T15:42:46.161Z,94.77
2019-01-06T15:45:18.601Z,94.95
2019-01-06T15:48:02.511Z,93.16
2019-01-06T15:50:51.848Z,93.89
2019-01-06T15:53:40.056Z,95.06
2019-01-06T15:56:12.732Z,94.83
2019-01-06T15:58:51.430Z,95.95
2019-01-06T16:01:41.563Z,96.39
2019-01-06T16:04:24.549Z,97.50
2019-01-06T16:07:11.760Z,98.80
2019-01-06T16:09:58.184Z,98.75
2019-01-06T16:12:30.695Z,98.54
2019-01-06T16:15:17.052Z,99.16
2019-01-06T16:18:04.392Z,99.22
2019-01-06T16:20:36.956Z,98.25
2019-01-06T16:23:24.364Z,98.09
2019-01-06T16:26:10.733Z,98.46
2019-01-06T16:29:00.429Z,98.55
2019-01-06T16:31:46.144Z,99.49
2019-01-06T16:34:18.800Z,100.00
2019-01-06T16:37:09.080Z,100.00
2019-01-06T16:39:41.526Z,100.00
2019-01-06T16:42:21.720Z,100.00
2019-01-06T16:44:54.260Z,100.00
2019-01-06T16:47:42.605Z,100.00
2019-01-06T16:50:29.953Z,99.80
2019-01-06T16:53:10.724Z,97.86
2019-01-06T16:55:43.199Z,97.39
2019-01-06T16:58:15.738Z,96.19
2019-01-06T17:00:57.576Z,95.89
2019-01-06T17:03:45.764Z,94.75
2019-01-06T17:06:31.789Z,94.11
2019-01-06T17:09:04.452Z,94.12
2019-01-06T17:11:37.072Z,93.23
2019-01-06T17:14:19.572Z,93.40
2019-01-06T17:17:02.576Z,93.26
2019-01-06T17:19:42.804Z,92.52
2019-01-06T17:22:27.596Z,92.88
2019-01-06T17:25:00.175Z,91.38
2019-01-06T17:27:44.149Z,91.70
2019-01-06T17:30:31.368Z,92.65
2019-01-06T17:33:18.559Z,92.52
2019-01-06T17:36:06.740Z,92.07
2019-01-06T17:38:55.110Z,92.11
2019-01-06T17:41:37.887Z,89.80
2019-01-06T17:44:26.196Z,91.38
2019-01-06T17:47:09.124Z,91.23
2019-01-06T17:49:41.653Z,92.26
2019-01-06T17:52:24.933Z,92.47
2019-01-06T17:55:12.389Z,92.41
2019-01-06T17:57:44.860Z,92.59
2019-01-06T18:00:17.416Z,93.24
2019-01-06T18:03:07.936Z,93.63
2019-01-06T18:05:59.168Z,94.46
2019-01-06T18:08:31.744Z,94.67
2019-01-06T18:11:14.215Z,95.33
2019-01-06T18:13:46.724Z,95.67
2019-01-06T18:16:36.929Z,96.46
2019-01-06T18:19:23.286Z,95.92
2019-01-06T18:22:07.973Z,96.29
2019-01-06T18:24:56.807Z,96.51
2019-01-06T18:27:40.443Z,96.10
2019-01-06T18:30:29.707Z,96.02
2019-01-06T18:33:17.964Z,96.50
2019-01-06T18:36:06.144Z,97.55
2019-01-06T18:38:54.502Z,97.52
2019-01-06T18:41:36.732Z,98.13
2019-01-06T18:44:09.144Z,98.12
2019-01-06T18:47:00.497Z,98.12
2019-01-06T18:49:32.925Z,97.80
2019-01-06T18:52:23.252Z,97.85
2019-01-06T18:55:05.259Z,98.09
2019-01-06T18:57:54.477Z,98.26
2019-01-06T19:00:26.991Z,97.47
2019-01-06T19:03:09.287Z,95.61
2019-01-06T19:05:56.748Z,95.18
2019-01-06T19:08:43.796Z,94.81
2019-01-06T19:11:31.121Z,93.96
2019-01-06T19:14:03.566Z,93.39
2019-01-06T19:16:54.977Z,93.90
2019-01-06T19:19:47.361Z,94.16
2019-01-06T19:22:30.779Z,94.27
2019-01-06T19:25:17.160Z,94.63
2019-01-06T19:28:00.404Z,95.39
2019-01-06T19:30:47.621Z,96.35
2019-01-06T19:33:34.180Z,96.17
2019-01-06T19:36:18.864Z,95.68
2019-01-06T19:39:07.848Z,96.73
2019-01-06T19:41:38.201Z,97.52
2019-01-06T19:44:25.625Z,97.64
2019-01-06T19:47:17.885Z,96.04
2019-01-06T19:50:10.277Z,97.66
2019-01-06T19:52:42.874Z,97.87
2019-01-06T19:55:19.232Z,98.78
2019-01-06T19:57:51.721Z,98.81
2019-01-06T20:00:40.398Z,99.75
2019-01-06T20:03:27.684Z,100.00
2019-01-06T20:06:11.232Z,100.00
2019-01-06T20:08:49.209Z,100.00
2019-01-06T20:11:37.233Z,100.00
2019-01-06T20:14:18.839Z,100.00
2019-01-06T20:17:05.224Z,100.00
2019-01-06T20:19:54.525Z,100.00
2019-01-06T20:22:40.688Z,100.00
2019-01-06T20:25:27.072Z,100.00
2019-01-06T20:27:59.749Z,100.00
2019-01-06T20:30:42.737Z,100.00
2019-01-06T20:33:29.973Z,99.44
2019-01-06T20:36:10.778Z,99.88
2019-01-06T20:38:43.213Z,100.00
2019-01-06T20:41:15.784Z,100.00
2019-01-06T20:43:56.991Z,100.00
2019-01-06T20:46:42.997Z,100.00
2019-01-06T20:49:30.196Z,100.00
2019-01-06T20:52:13.693Z,100.00
2019-01-06T20:55:04.101Z,100.00
2019-01-06T20:57:36.581Z,100.00
2019-01-06T21:00:09.120Z,100.00
2019-01-06T21:03:00.432Z,100.00
2019-01-06T21:05:33.096Z,100.00
2019-01-06T21:08:10.783Z,100.00
2019-01-06T21:10:50.143Z,100.00
2019-01-06T21:13:39.560Z,100.00
2019-01-06T21:16:15.819Z,100.00
2019-01-06T21:19:03.144Z,100.00
2019-01-06T21:21:35.697Z,100.00
2019-01-06T21:24:25.066Z,100.00
2019-01-06T21:26:57.629Z,100.00
2019-01-06T21:29:30.117Z,100.00
2019-01-06T21:32:02.757Z,100.00
2019-01-06T21:34:43.979Z,100.00
2019-01-06T21:37:33.280Z,100.00
2019-01-06T21:40:22.501Z,100.00
2019-01-06T21:42:55.090Z,100.00
2019-01-06T21:45:30.889Z,100.00
2019-01-06T21:48:03.549Z,100.00
2019-01-06T21:50:36.232Z,100.00
2019-01-06T21:53:08.905Z,100.00
2019-01-06T21:56:01.276Z,100.00
2019-01-06T21:58:33.865Z,100.00
2019-01-06T22:01:06.381Z,100.00
2019-01-06T22:03:48.512Z,100.00
2019-01-06T22:06:21.128Z,100.00
2019-01-06T22:08:53.653Z,100.00
2019-01-06T22:11:32.532Z,100.00
2019-01-06T22:14:05.084Z,100.00
2019-01-06T22:16:51.460Z,99.56
2019-01-06T22:19:37.849Z,99.98
2019-01-06T22:22:15.993Z,99.78
2019-01-06T22:25:04.621Z,100.00
2019-01-06T22:27:44.082Z,99.93
2019-01-06T22:30:16.601Z,99.97
2019-01-06T22:33:06.888Z,100.00
2019-01-06T22:35:51.028Z,100.00
2019-01-06T22:38:23.452Z,100.00
2019-01-06T22:41:12.620Z,100.00
2019-01-06T22:43:59.360Z,100.00
2019-01-06T22:46:43.920Z,100.00
2019-01-06T22:49:24.958Z,100.00
2019-01-06T22:52:02.384Z,100.00
2019-01-06T22:54:48.766Z,100.00
2019-01-06T22:57:21.253Z,100.00
2019-01-06T23:00:07.644Z,100.00
2019-01-06T23:02:40.088Z,100.00
2019-01-06T23:05:17.669Z,100.00
2019-01-06T23:08:04.864Z,99.80
2019-01-06T23:10:54.120Z,100.00
2019-01-06T23:13:44.460Z,99.86
2019-01-06T23:16:32.370Z,100.00
2019-01-06T23:19:22.616Z,99.67
2019-01-06T23:21:55.036Z,99.34
2019-01-06T23:24:43.729Z,99.26
2019-01-06T23:27:22.312Z,99.20
2019-01-06T23:30:09.528Z,98.26
2019-01-06T23:32:55.907Z,97.41
2019-01-06T23:35:44.201Z,98.23
2019-01-06T23:38:16.608Z,98.36
2019-01-06T23:41:04.943Z,98.42
2019-01-06T23:43:37.488Z,98.48
2019-01-06T23:46:27.821Z,98.45
2019-01-06T23:49:00.373Z,98.14
2019-01-06T23:51:41.284Z,98.33
2019-01-06T23:54:32.545Z,98.49
2019-01-06T23:57:12.870Z,98.44
2019-01-06T23:59:58.628Z,98.06
